sensor_id;sensor_type;location;lat;lon;timestamp;temperature;humidity
25482;DHT22;13395;50.752;4.268;2022-11-24T00:00:50;9.90;99.90
25482;DHT22;13395;50.752;4.268;2022-11-24T00:03:15;9.90;99.90
25482;DHT22;13395;50.752;4.268;2022-11-24T00:05:41;10.00;99.90
25482;DHT22;13395;50.752;4.268;2022-11-24T00:08:06;9.90;99.90
25482;DHT22;13395;50.752;4.268;2022-11-24T00:10:32;9.90;99.90
25482;DHT22;13395;50.752;4.268;2022-11-24T00:12:57;9.90;99.90
25482;DHT22;13395;50.752;4.268;2022-11-24T00:15:23;9.90;99.90
25482;DHT22;13395;50.752;4.268;2022-11-24T00:17:48;9.90;99.90
25482;DHT22;13395;50.752;4.268;2022-11-24T00:20:14;9.90;99.90
25482;DHT22;13395;50.752;4.268;2022-11-24T00:22:40;10.00;99.90
25482;DHT22;13395;50.752;4.268;2022-11-24T00:25:06;10.00;99.90
25482;DHT22;13395;50.752;4.268;2022-11-24T00:27:31;10.00;99.90
25482;DHT22;13395;50.752;4.268;2022-11-24T00:29:57;10.00;99.90
25482;DHT22;13395;50.752;4.268;2022-11-24T00:32:26;10.00;99.90
25482;DHT22;13395;50.752;4.268;2022-11-24T00:34:51;10.00;99.90
25482;DHT22;13395;50.752;4.268;2022-11-24T00:37:17;9.90;99.90
25482;DHT22;13395;50.752;4.268;2022-11-24T00:39:42;10.00;99.90
25482;DHT22;13395;50.752;4.268;2022-11-24T00:42:08;10.00;99.90
25482;DHT22;13395;50.752;4.268;2022-11-24T00:44:33;10.00;99.90
25482;DHT22;13395;50.752;4.268;2022-11-24T00:46:59;10.00;99.90
25482;DHT22;13395;50.752;4.268;2022-11-24T00:49:24;10.00;99.90
25482;DHT22;13395;50.752;4.268;2022-11-24T00:51:50;9.80;99.90
25482;DHT22;13395;50.752;4.268;2022-11-24T00:54:15;9.80;99.90
25482;DHT22;13395;50.752;4.268;2022-11-24T00:56:41;9.80;99.90
25482;DHT22;13395;50.752;4.268;2022-11-24T00:59:06;9.90;99.90
25482;DHT22;13395;50.752;4.268;2022-11-24T01:01:32;9.90;99.90
25482;DHT22;13395;50.752;4.268;2022-11-24T01:03:58;9.90;99.90
25482;DHT22;13395;50.752;4.268;2022-11-24T01:06:25;9.90;99.90
25482;DHT22;13395;50.752;4.268;2022-11-24T01:08:51;10.00;99.90
25482;DHT22;13395;50.752;4.268;2022-11-24T01:11:18;10.00;99.90
25482;DHT22;13395;50.752;4.268;2022-11-24T01:13:45;10.00;99.90
25482;DHT22;13395;50.752;4.268;2022-11-24T01:16:18;10.00;99.90
25482;DHT22;13395;50.752;4.268;2022-11-24T01:18:45;10.00;99.90
25482;DHT22;13395;50.752;4.268;2022-11-24T01:21:11;10.00;99.90
25482;DHT22;13395;50.752;4.268;2022-11-24T01:23:36;9.90;99.90
25482;DHT22;13395;50.752;4.268;2022-11-24T01:26:03;9.90;99.90
25482;DHT22;13395;50.752;4.268;2022-11-24T01:28:30;9.90;99.90
25482;DHT22;13395;50.752;4.268;2022-11-24T01:30:59;10.00;99.90
25482;DHT22;13395;50.752;4.268;2022-11-24T01:33:24;10.10;99.90
25482;DHT22;13395;50.752;4.268;2022-11-24T01:35:50;10.00;99.90
25482;DHT22;13395;50.752;4.268;2022-11-24T01:38:16;10.10;99.90
25482;DHT22;13395;50.752;4.268;2022-11-24T01:40:41;10.10;99.90
25482;DHT22;13395;50.752;4.268;2022-11-24T01:43:17;10.10;99.90
25482;DHT22;13395;50.752;4.268;2022-11-24T01:45:42;10.10;99.90
25482;DHT22;13395;50.752;4.268;2022-11-24T01:48:28;9.90;99.90
25482;DHT22;13395;50.752;4.268;2022-11-24T01:50:58;10.00;99.90
25482;DHT22;13395;50.752;4.268;2022-11-24T01:53:28;10.00;99.90
25482;DHT22;13395;50.752;4.268;2022-11-24T01:55:53;10.00;99.90
25482;DHT22;13395;50.752;4.268;2022-11-24T01:58:26;10.10;99.90
25482;DHT22;13395;50.752;4.268;2022-11-24T02:00:53;10.20;99.90
25482;DHT22;13395;50.752;4.268;2022-11-24T02:03:19;10.30;99.90
25482;DHT22;13395;50.752;4.268;2022-11-24T02:05:57;10.30;99.90
25482;DHT22;13395;50.752;4.268;2022-11-24T02:08:46;10.40;99.90
25482;DHT22;13395;50.752;4.268;2022-11-24T02:11:09;10.30;99.90
25482;DHT22;13395;50.752;4.268;2022-11-24T02:13:35;10.30;99.90
25482;DHT22;13395;50.752;4.268;2022-11-24T02:16:02;10.30;99.90
25482;DHT22;13395;50.752;4.268;2022-11-24T02:18:27;10.40;99.90
25482;DHT22;13395;50.752;4.268;2022-11-24T02:20:54;10.50;99.90
25482;DHT22;13395;50.752;4.268;2022-11-24T02:23:23;10.50;99.90
25482;DHT22;13395;50.752;4.268;2022-11-24T02:28:20;10.60;99.90
25482;DHT22;13395;50.752;4.268;2022-11-24T02:30:46;10.60;99.90
25482;DHT22;13395;50.752;4.268;2022-11-24T02:33:12;10.50;99.90
25482;DHT22;13395;50.752;4.268;2022-11-24T02:35:38;10.60;99.90
25482;DHT22;13395;50.752;4.268;2022-11-24T02:38:03;10.60;99.90
25482;DHT22;13395;50.752;4.268;2022-11-24T02:40:29;10.50;99.90
25482;DHT22;13395;50.752;4.268;2022-11-24T02:42:56;10.60;99.90
25482;DHT22;13395;50.752;4.268;2022-11-24T02:45:23;10.60;99.90
25482;DHT22;13395;50.752;4.268;2022-11-24T02:47:49;10.70;99.90
25482;DHT22;13395;50.752;4.268;2022-11-24T02:50:15;10.60;99.90
25482;DHT22;13395;50.752;4.268;2022-11-24T02:52:40;10.60;99.90
25482;DHT22;13395;50.752;4.268;2022-11-24T02:55:06;10.50;99.90
25482;DHT22;13395;50.752;4.268;2022-11-24T02:57:32;10.50;99.90
25482;DHT22;13395;50.752;4.268;2022-11-24T02:59:57;10.50;99.90
25482;DHT22;13395;50.752;4.268;2022-11-24T03:02:23;10.50;99.90
25482;DHT22;13395;50.752;4.268;2022-11-24T03:04:48;10.40;99.90
25482;DHT22;13395;50.752;4.268;2022-11-24T03:07:13;10.40;99.90
25482;DHT22;13395;50.752;4.268;2022-11-24T03:09:39;10.50;99.90
25482;DHT22;13395;50.752;4.268;2022-11-24T03:12:05;10.40;99.90
25482;DHT22;13395;50.752;4.268;2022-11-24T03:14:30;10.40;99.90
25482;DHT22;13395;50.752;4.268;2022-11-24T03:16:56;10.30;99.90
25482;DHT22;13395;50.752;4.268;2022-11-24T03:19:21;10.30;99.90
25482;DHT22;13395;50.752;4.268;2022-11-24T03:21:47;10.30;99.90
25482;DHT22;13395;50.752;4.268;2022-11-24T03:24:12;10.30;99.90
25482;DHT22;13395;50.752;4.268;2022-11-24T03:26:38;10.20;99.90
25482;DHT22;13395;50.752;4.268;2022-11-24T03:29:03;10.10;99.90
25482;DHT22;13395;50.752;4.268;2022-11-24T03:31:29;10.10;99.90
25482;DHT22;13395;50.752;4.268;2022-11-24T03:33:54;10.20;99.90
25482;DHT22;13395;50.752;4.268;2022-11-24T03:36:20;10.20;99.90
25482;DHT22;13395;50.752;4.268;2022-11-24T03:38:46;10.20;99.90
25482;DHT22;13395;50.752;4.268;2022-11-24T03:41:11;10.10;99.90
25482;DHT22;13395;50.752;4.268;2022-11-24T03:43:37;10.20;99.90
25482;DHT22;13395;50.752;4.268;2022-11-24T03:46:03;10.20;99.90
25482;DHT22;13395;50.752;4.268;2022-11-24T03:48:28;10.20;99.90
25482;DHT22;13395;50.752;4.268;2022-11-24T03:50:54;10.20;99.90
25482;DHT22;13395;50.752;4.268;2022-11-24T03:53:21;10.10;99.90
25482;DHT22;13395;50.752;4.268;2022-11-24T03:55:46;10.10;99.90
25482;DHT22;13395;50.752;4.268;2022-11-24T03:58:12;10.00;99.90
25482;DHT22;13395;50.752;4.268;2022-11-24T04:00:38;10.00;99.90
25482;DHT22;13395;50.752;4.268;2022-11-24T04:03:03;9.90;99.90
25482;DHT22;13395;50.752;4.268;2022-11-24T04:05:28;9.90;99.90
25482;DHT22;13395;50.752;4.268;2022-11-24T04:07:54;9.90;99.90
25482;DHT22;13395;50.752;4.268;2022-11-24T04:10:21;9.90;99.90
25482;DHT22;13395;50.752;4.268;2022-11-24T04:12:47;9.70;99.90
25482;DHT22;13395;50.752;4.268;2022-11-24T04:15:16;9.60;99.90
25482;DHT22;13395;50.752;4.268;2022-11-24T04:17:42;9.60;99.90
25482;DHT22;13395;50.752;4.268;2022-11-24T04:20:08;9.50;99.90
25482;DHT22;13395;50.752;4.268;2022-11-24T04:22:34;9.40;99.90
25482;DHT22;13395;50.752;4.268;2022-11-24T04:25:00;9.50;99.90
25482;DHT22;13395;50.752;4.268;2022-11-24T04:27:25;9.50;99.90
25482;DHT22;13395;50.752;4.268;2022-11-24T04:29:51;9.40;99.90
25482;DHT22;13395;50.752;4.268;2022-11-24T04:32:16;9.40;99.90
25482;DHT22;13395;50.752;4.268;2022-11-24T04:34:42;9.30;99.90
25482;DHT22;13395;50.752;4.268;2022-11-24T04:37:08;9.40;99.90
25482;DHT22;13395;50.752;4.268;2022-11-24T04:39:33;9.40;99.90
25482;DHT22;13395;50.752;4.268;2022-11-24T04:41:59;9.40;99.90
25482;DHT22;13395;50.752;4.268;2022-11-24T04:44:24;9.40;99.90
25482;DHT22;13395;50.752;4.268;2022-11-24T04:46:50;9.40;99.90
25482;DHT22;13395;50.752;4.268;2022-11-24T04:49:15;9.40;99.90
25482;DHT22;13395;50.752;4.268;2022-11-24T04:51:41;9.50;99.90
25482;DHT22;13395;50.752;4.268;2022-11-24T04:54:08;9.40;99.90
25482;DHT22;13395;50.752;4.268;2022-11-24T04:56:34;9.40;99.90
25482;DHT22;13395;50.752;4.268;2022-11-24T04:58:59;9.40;99.90
25482;DHT22;13395;50.752;4.268;2022-11-24T05:01:25;9.30;99.90
25482;DHT22;13395;50.752;4.268;2022-11-24T05:03:54;9.30;99.90
25482;DHT22;13395;50.752;4.268;2022-11-24T05:06:20;9.20;99.90
25482;DHT22;13395;50.752;4.268;2022-11-24T05:08:46;9.20;99.90
25482;DHT22;13395;50.752;4.268;2022-11-24T05:11:12;9.10;99.90
25482;DHT22;13395;50.752;4.268;2022-11-24T05:13:38;9.00;99.90
25482;DHT22;13395;50.752;4.268;2022-11-24T05:16:03;9.00;99.90
25482;DHT22;13395;50.752;4.268;2022-11-24T05:18:29;8.90;99.90
25482;DHT22;13395;50.752;4.268;2022-11-24T05:20:56;8.90;99.90
25482;DHT22;13395;50.752;4.268;2022-11-24T05:23:22;8.80;99.90
25482;DHT22;13395;50.752;4.268;2022-11-24T05:25:47;8.80;99.90
25482;DHT22;13395;50.752;4.268;2022-11-24T05:28:13;8.80;99.90
25482;DHT22;13395;50.752;4.268;2022-11-24T05:30:38;8.80;99.90
25482;DHT22;13395;50.752;4.268;2022-11-24T05:33:08;8.70;99.90
25482;DHT22;13395;50.752;4.268;2022-11-24T05:35:35;8.70;99.90
25482;DHT22;13395;50.752;4.268;2022-11-24T05:38:01;8.70;99.90
25482;DHT22;13395;50.752;4.268;2022-11-24T05:40:27;8.70;99.90
25482;DHT22;13395;50.752;4.268;2022-11-24T05:42:52;8.70;99.90
25482;DHT22;13395;50.752;4.268;2022-11-24T05:45:18;8.60;99.90
25482;DHT22;13395;50.752;4.268;2022-11-24T05:47:44;8.70;99.90
25482;DHT22;13395;50.752;4.268;2022-11-24T05:50:11;8.70;99.90
25482;DHT22;13395;50.752;4.268;2022-11-24T05:52:37;8.60;99.90
25482;DHT22;13395;50.752;4.268;2022-11-24T05:55:03;8.70;99.90
25482;DHT22;13395;50.752;4.268;2022-11-24T05:57:29;8.70;99.90
25482;DHT22;13395;50.752;4.268;2022-11-24T05:59:54;8.60;99.90
25482;DHT22;13395;50.752;4.268;2022-11-24T06:02:20;8.70;99.90
25482;DHT22;13395;50.752;4.268;2022-11-24T06:04:45;8.70;99.90
25482;DHT22;13395;50.752;4.268;2022-11-24T06:07:11;8.60;99.90
25482;DHT22;13395;50.752;4.268;2022-11-24T06:09:37;8.70;99.90
25482;DHT22;13395;50.752;4.268;2022-11-24T06:12:03;8.70;99.90
25482;DHT22;13395;50.752;4.268;2022-11-24T06:14:29;8.70;99.90
25482;DHT22;13395;50.752;4.268;2022-11-24T06:16:54;8.70;99.90
25482;DHT22;13395;50.752;4.268;2022-11-24T06:19:20;8.70;99.90
25482;DHT22;13395;50.752;4.268;2022-11-24T06:21:45;8.70;99.90
25482;DHT22;13395;50.752;4.268;2022-11-24T06:24:11;8.70;99.90
25482;DHT22;13395;50.752;4.268;2022-11-24T06:26:36;8.70;99.90
25482;DHT22;13395;50.752;4.268;2022-11-24T06:29:02;8.70;99.90
25482;DHT22;13395;50.752;4.268;2022-11-24T06:31:27;8.60;99.90
25482;DHT22;13395;50.752;4.268;2022-11-24T06:33:53;8.60;99.90
25482;DHT22;13395;50.752;4.268;2022-11-24T06:36:18;8.60;99.90
25482;DHT22;13395;50.752;4.268;2022-11-24T06:38:44;8.70;99.90
25482;DHT22;13395;50.752;4.268;2022-11-24T06:41:11;8.60;99.90
25482;DHT22;13395;50.752;4.268;2022-11-24T06:43:37;8.60;99.90
25482;DHT22;13395;50.752;4.268;2022-11-24T06:46:03;8.60;99.90
25482;DHT22;13395;50.752;4.268;2022-11-24T06:48:29;8.50;99.90
25482;DHT22;13395;50.752;4.268;2022-11-24T06:51:01;8.50;99.90
25482;DHT22;13395;50.752;4.268;2022-11-24T06:53:34;8.50;99.90
25482;DHT22;13395;50.752;4.268;2022-11-24T06:56:08;8.50;99.90
25482;DHT22;13395;50.752;4.268;2022-11-24T06:58:33;8.50;99.90
25482;DHT22;13395;50.752;4.268;2022-11-24T07:00:59;8.50;99.90
25482;DHT22;13395;50.752;4.268;2022-11-24T07:03:25;8.50;99.90
25482;DHT22;13395;50.752;4.268;2022-11-24T07:05:56;8.50;99.90
25482;DHT22;13395;50.752;4.268;2022-11-24T07:08:22;8.50;99.90
25482;DHT22;13395;50.752;4.268;2022-11-24T07:10:48;8.50;99.90
25482;DHT22;13395;50.752;4.268;2022-11-24T07:13:13;8.40;99.90
25482;DHT22;13395;50.752;4.268;2022-11-24T07:15:39;8.40;99.90
25482;DHT22;13395;50.752;4.268;2022-11-24T07:18:04;8.40;99.90
25482;DHT22;13395;50.752;4.268;2022-11-24T07:20:30;8.40;99.90
25482;DHT22;13395;50.752;4.268;2022-11-24T07:22:56;8.40;99.90
25482;DHT22;13395;50.752;4.268;2022-11-24T07:25:22;8.50;99.90
25482;DHT22;13395;50.752;4.268;2022-11-24T07:27:48;8.50;99.90
25482;DHT22;13395;50.752;4.268;2022-11-24T07:30:13;8.50;99.90
25482;DHT22;13395;50.752;4.268;2022-11-24T07:32:39;8.50;99.90
25482;DHT22;13395;50.752;4.268;2022-11-24T07:35:04;8.50;99.90
25482;DHT22;13395;50.752;4.268;2022-11-24T07:37:30;8.50;99.90
25482;DHT22;13395;50.752;4.268;2022-11-24T07:39:56;8.40;99.90
25482;DHT22;13395;50.752;4.268;2022-11-24T07:42:21;8.40;99.90
25482;DHT22;13395;50.752;4.268;2022-11-24T07:44:47;8.50;99.90
25482;DHT22;13395;50.752;4.268;2022-11-24T07:47:12;8.50;99.90
25482;DHT22;13395;50.752;4.268;2022-11-24T07:49:38;8.60;99.90
25482;DHT22;13395;50.752;4.268;2022-11-24T07:52:03;8.70;99.90
25482;DHT22;13395;50.752;4.268;2022-11-24T07:54:29;8.80;99.90
25482;DHT22;13395;50.752;4.268;2022-11-24T07:56:55;8.70;99.90
25482;DHT22;13395;50.752;4.268;2022-11-24T07:59:20;8.60;99.90
25482;DHT22;13395;50.752;4.268;2022-11-24T08:01:46;8.80;99.90
25482;DHT22;13395;50.752;4.268;2022-11-24T08:04:11;8.90;99.90
25482;DHT22;13395;50.752;4.268;2022-11-24T08:06:37;9.00;99.90
25482;DHT22;13395;50.752;4.268;2022-11-24T08:09:02;9.00;99.90
25482;DHT22;13395;50.752;4.268;2022-11-24T08:11:28;8.90;99.90
25482;DHT22;13395;50.752;4.268;2022-11-24T08:13:55;9.00;99.90
25482;DHT22;13395;50.752;4.268;2022-11-24T08:16:21;9.20;99.90
25482;DHT22;13395;50.752;4.268;2022-11-24T08:18:51;9.10;99.90
25482;DHT22;13395;50.752;4.268;2022-11-24T08:21:17;9.20;99.90
25482;DHT22;13395;50.752;4.268;2022-11-24T08:23:42;9.30;99.90
25482;DHT22;13395;50.752;4.268;2022-11-24T08:26:10;9.30;99.90
25482;DHT22;13395;50.752;4.268;2022-11-24T08:28:36;9.40;99.90
25482;DHT22;13395;50.752;4.268;2022-11-24T08:31:03;9.50;99.90
25482;DHT22;13395;50.752;4.268;2022-11-24T08:33:29;9.50;99.90
25482;DHT22;13395;50.752;4.268;2022-11-24T08:35:55;9.50;99.90
25482;DHT22;13395;50.752;4.268;2022-11-24T08:38:20;9.50;99.90
25482;DHT22;13395;50.752;4.268;2022-11-24T08:40:46;9.50;99.90
25482;DHT22;13395;50.752;4.268;2022-11-24T08:43:11;9.60;99.90
25482;DHT22;13395;50.752;4.268;2022-11-24T08:45:37;9.60;99.90
25482;DHT22;13395;50.752;4.268;2022-11-24T08:48:03;9.70;99.90
25482;DHT22;13395;50.752;4.268;2022-11-24T08:50:28;9.80;99.90
25482;DHT22;13395;50.752;4.268;2022-11-24T08:52:54;9.80;99.90
25482;DHT22;13395;50.752;4.268;2022-11-24T08:55:19;9.90;99.90
25482;DHT22;13395;50.752;4.268;2022-11-24T08:57:45;9.90;99.90
25482;DHT22;13395;50.752;4.268;2022-11-24T09:00:11;9.90;99.90
25482;DHT22;13395;50.752;4.268;2022-11-24T09:02:37;10.00;99.90
25482;DHT22;13395;50.752;4.268;2022-11-24T09:05:06;10.10;99.90
25482;DHT22;13395;50.752;4.268;2022-11-24T09:07:31;10.10;99.90
25482;DHT22;13395;50.752;4.268;2022-11-24T09:09:57;10.20;99.90
25482;DHT22;13395;50.752;4.268;2022-11-24T09:12:22;10.40;99.90
25482;DHT22;13395;50.752;4.268;2022-11-24T09:14:48;10.80;99.90
25482;DHT22;13395;50.752;4.268;2022-11-24T09:17:13;11.10;99.90
25482;DHT22;13395;50.752;4.268;2022-11-24T09:19:39;11.40;99.90
25482;DHT22;13395;50.752;4.268;2022-11-24T09:22:04;11.80;99.90
25482;DHT22;13395;50.752;4.268;2022-11-24T09:24:30;12.00;99.90
25482;DHT22;13395;50.752;4.268;2022-11-24T09:26:55;12.00;99.90
25482;DHT22;13395;50.752;4.268;2022-11-24T09:29:21;12.40;99.90
25482;DHT22;13395;50.752;4.268;2022-11-24T09:31:46;13.20;99.90
25482;DHT22;13395;50.752;4.268;2022-11-24T09:34:13;14.10;99.90
25482;DHT22;13395;50.752;4.268;2022-11-24T09:36:40;14.70;99.90
25482;DHT22;13395;50.752;4.268;2022-11-24T09:39:05;15.50;99.90
25482;DHT22;13395;50.752;4.268;2022-11-24T09:49:29;16.30;99.90
25482;DHT22;13395;50.752;4.268;2022-11-24T09:51:55;16.70;99.90
25482;DHT22;13395;50.752;4.268;2022-11-24T09:54:22;17.20;99.90
25482;DHT22;13395;50.752;4.268;2022-11-24T09:56:49;17.40;99.90
25482;DHT22;13395;50.752;4.268;2022-11-24T09:59:17;17.20;99.90
25482;DHT22;13395;50.752;4.268;2022-11-24T10:01:44;17.50;99.90
25482;DHT22;13395;50.752;4.268;2022-11-24T10:04:27;17.10;99.90
25482;DHT22;13395;50.752;4.268;2022-11-24T10:09:40;16.70;99.90
25482;DHT22;13395;50.752;4.268;2022-11-24T10:22:50;16.40;99.90
25482;DHT22;13395;50.752;4.268;2022-11-24T10:25:27;16.00;99.90
25482;DHT22;13395;50.752;4.268;2022-11-24T10:27:56;15.50;99.90
25482;DHT22;13395;50.752;4.268;2022-11-24T10:30:24;15.20;99.90
25482;DHT22;13395;50.752;4.268;2022-11-24T10:32:57;14.90;99.90
25482;DHT22;13395;50.752;4.268;2022-11-24T10:35:27;14.70;99.90
25482;DHT22;13395;50.752;4.268;2022-11-24T10:37:55;14.50;99.90
25482;DHT22;13395;50.752;4.268;2022-11-24T10:42:57;14.20;99.90
25482;DHT22;13395;50.752;4.268;2022-11-24T10:45:24;14.00;99.90
25482;DHT22;13395;50.752;4.268;2022-11-24T10:47:50;13.90;99.90
25482;DHT22;13395;50.752;4.268;2022-11-24T10:50:31;13.80;99.90
25482;DHT22;13395;50.752;4.268;2022-11-24T10:58:21;14.10;99.90
25482;DHT22;13395;50.752;4.268;2022-11-24T11:00:47;14.30;99.90
25482;DHT22;13395;50.752;4.268;2022-11-24T11:03:19;14.70;99.90
25482;DHT22;13395;50.752;4.268;2022-11-24T11:10:44;15.70;99.90
25482;DHT22;13395;50.752;4.268;2022-11-24T11:13:26;15.90;99.90
25482;DHT22;13395;50.752;4.268;2022-11-24T11:15:52;16.00;99.90
25482;DHT22;13395;50.752;4.268;2022-11-24T11:18:18;15.80;99.90
25482;DHT22;13395;50.752;4.268;2022-11-24T11:23:19;16.10;99.90
25482;DHT22;13395;50.752;4.268;2022-11-24T11:25:45;16.80;99.90
25482;DHT22;13395;50.752;4.268;2022-11-24T11:30:39;15.90;99.90
25482;DHT22;13395;50.752;4.268;2022-11-24T11:33:07;15.80;99.90
25482;DHT22;13395;50.752;4.268;2022-11-24T11:35:42;15.90;99.90
25482;DHT22;13395;50.752;4.268;2022-11-24T11:38:08;15.50;99.90
25482;DHT22;13395;50.752;4.268;2022-11-24T11:40:35;15.00;99.90
25482;DHT22;13395;50.752;4.268;2022-11-24T11:43:43;14.90;99.90
25482;DHT22;13395;50.752;4.268;2022-11-24T11:46:00;14.90;99.90
25482;DHT22;13395;50.752;4.268;2022-11-24T11:48:30;15.10;99.90
25482;DHT22;13395;50.752;4.268;2022-11-24T11:53:42;15.80;99.90
25482;DHT22;13395;50.752;4.268;2022-11-24T12:01:45;16.00;99.90
25482;DHT22;13395;50.752;4.268;2022-11-24T12:07:00;15.60;99.90
25482;DHT22;13395;50.752;4.268;2022-11-24T12:14:29;14.40;99.90
25482;DHT22;13395;50.752;4.268;2022-11-24T12:17:03;14.40;99.90
25482;DHT22;13395;50.752;4.268;2022-11-24T12:30:13;15.80;99.90
25482;DHT22;13395;50.752;4.268;2022-11-24T12:35:26;17.00;99.90
25482;DHT22;13395;50.752;4.268;2022-11-24T12:38:03;17.40;99.90
25482;DHT22;13395;50.752;4.268;2022-11-24T12:45:57;18.70;99.90
25482;DHT22;13395;50.752;4.268;2022-11-24T12:50:57;19.10;99.90
25482;DHT22;13395;50.752;4.268;2022-11-24T12:53:31;19.30;99.90
25482;DHT22;13395;50.752;4.268;2022-11-24T12:55:58;19.50;99.90
25482;DHT22;13395;50.752;4.268;2022-11-24T12:58:31;19.10;99.90
25482;DHT22;13395;50.752;4.268;2022-11-24T13:03:31;19.40;99.30
25482;DHT22;13395;50.752;4.268;2022-11-24T13:08:43;19.40;99.40
25482;DHT22;13395;50.752;4.268;2022-11-24T13:13:55;19.10;99.50
25482;DHT22;13395;50.752;4.268;2022-11-24T13:16:20;18.80;99.60
25482;DHT22;13395;50.752;4.268;2022-11-24T13:18:57;18.20;99.90
25482;DHT22;13395;50.752;4.268;2022-11-24T13:23:58;17.00;99.90
25482;DHT22;13395;50.752;4.268;2022-11-24T13:28:57;16.00;99.90
25482;DHT22;13395;50.752;4.268;2022-11-24T13:31:24;15.60;99.90
25482;DHT22;13395;50.752;4.268;2022-11-24T13:33:50;15.40;99.90
25482;DHT22;13395;50.752;4.268;2022-11-24T13:49:21;14.40;99.90
25482;DHT22;13395;50.752;4.268;2022-11-24T13:51:46;14.40;99.90
25482;DHT22;13395;50.752;4.268;2022-11-24T13:54:12;14.40;99.90
25482;DHT22;13395;50.752;4.268;2022-11-24T13:56:39;14.40;99.90
25482;DHT22;13395;50.752;4.268;2022-11-24T13:59:21;14.20;99.90
25482;DHT22;13395;50.752;4.268;2022-11-24T14:01:56;14.10;99.90
25482;DHT22;13395;50.752;4.268;2022-11-24T14:04:22;14.00;99.90
25482;DHT22;13395;50.752;4.268;2022-11-24T14:11:39;13.80;99.90
25482;DHT22;13395;50.752;4.268;2022-11-24T14:14:19;13.60;99.90
25482;DHT22;13395;50.752;4.268;2022-11-24T14:16:45;13.70;99.90
25482;DHT22;13395;50.752;4.268;2022-11-24T14:19:10;13.60;99.90
25482;DHT22;13395;50.752;4.268;2022-11-24T14:21:37;13.50;99.90
25482;DHT22;13395;50.752;4.268;2022-11-24T14:24:21;13.50;99.90
25482;DHT22;13395;50.752;4.268;2022-11-24T14:26:48;13.40;99.90
25482;DHT22;13395;50.752;4.268;2022-11-24T14:29:14;13.40;99.90
25482;DHT22;13395;50.752;4.268;2022-11-24T14:31:41;13.30;99.90
25482;DHT22;13395;50.752;4.268;2022-11-24T14:36:35;13.20;99.90
25482;DHT22;13395;50.752;4.268;2022-11-24T14:39:00;13.20;99.90
25482;DHT22;13395;50.752;4.268;2022-11-24T14:41:26;13.20;99.90
25482;DHT22;13395;50.752;4.268;2022-11-24T14:44:02;13.10;99.90
25482;DHT22;13395;50.752;4.268;2022-11-24T14:46:28;13.00;99.90
25482;DHT22;13395;50.752;4.268;2022-11-24T14:48:54;12.90;99.90
25482;DHT22;13395;50.752;4.268;2022-11-24T14:51:20;12.90;99.90
25482;DHT22;13395;50.752;4.268;2022-11-24T14:53:57;12.80;99.90
25482;DHT22;13395;50.752;4.268;2022-11-24T14:56:27;12.80;99.90
25482;DHT22;13395;50.752;4.268;2022-11-24T14:58:54;12.70;99.90
25482;DHT22;13395;50.752;4.268;2022-11-24T15:06:35;12.40;99.90
25482;DHT22;13395;50.752;4.268;2022-11-24T15:09:01;12.30;99.90
25482;DHT22;13395;50.752;4.268;2022-11-24T15:11:28;12.30;99.90
25482;DHT22;13395;50.752;4.268;2022-11-24T15:13:54;12.30;99.90
25482;DHT22;13395;50.752;4.268;2022-11-24T15:16:20;12.10;99.90
25482;DHT22;13395;50.752;4.268;2022-11-24T15:18:47;12.20;99.90
25482;DHT22;13395;50.752;4.268;2022-11-24T15:21:13;12.10;99.90
25482;DHT22;13395;50.752;4.268;2022-11-24T15:23:39;12.10;99.90
25482;DHT22;13395;50.752;4.268;2022-11-24T15:28:32;12.00;99.90
25482;DHT22;13395;50.752;4.268;2022-11-24T15:31:02;12.00;99.90
25482;DHT22;13395;50.752;4.268;2022-11-24T15:33:28;12.00;99.90
25482;DHT22;13395;50.752;4.268;2022-11-24T15:35:54;11.90;99.90
25482;DHT22;13395;50.752;4.268;2022-11-24T15:38:19;11.90;99.90
25482;DHT22;13395;50.752;4.268;2022-11-24T15:40:45;11.80;99.90
25482;DHT22;13395;50.752;4.268;2022-11-24T15:45:36;11.80;99.90
25482;DHT22;13395;50.752;4.268;2022-11-24T15:48:02;11.70;99.90
25482;DHT22;13395;50.752;4.268;2022-11-24T15:50:27;11.70;99.90
25482;DHT22;13395;50.752;4.268;2022-11-24T15:52:53;11.60;99.90
25482;DHT22;13395;50.752;4.268;2022-11-24T15:55:21;11.50;99.90
25482;DHT22;13395;50.752;4.268;2022-11-24T15:57:46;11.50;99.90
25482;DHT22;13395;50.752;4.268;2022-11-24T16:00:16;11.40;99.90
25482;DHT22;13395;50.752;4.268;2022-11-24T16:02:42;11.30;99.90
25482;DHT22;13395;50.752;4.268;2022-11-24T16:05:08;11.20;99.90
25482;DHT22;13395;50.752;4.268;2022-11-24T16:07:33;11.30;99.90
25482;DHT22;13395;50.752;4.268;2022-11-24T16:09:59;11.30;99.90
25482;DHT22;13395;50.752;4.268;2022-11-24T16:12:24;11.20;99.90
25482;DHT22;13395;50.752;4.268;2022-11-24T16:14:50;11.10;99.90
25482;DHT22;13395;50.752;4.268;2022-11-24T16:17:15;11.10;99.90
25482;DHT22;13395;50.752;4.268;2022-11-24T16:19:41;11.00;99.90
25482;DHT22;13395;50.752;4.268;2022-11-24T16:22:06;10.90;99.90
25482;DHT22;13395;50.752;4.268;2022-11-24T16:24:32;11.00;99.90
25482;DHT22;13395;50.752;4.268;2022-11-24T16:26:57;11.00;99.90
25482;DHT22;13395;50.752;4.268;2022-11-24T16:29:23;11.00;99.90
25482;DHT22;13395;50.752;4.268;2022-11-24T16:31:50;11.00;99.90
25482;DHT22;13395;50.752;4.268;2022-11-24T16:34:15;11.00;99.90
25482;DHT22;13395;50.752;4.268;2022-11-24T16:36:41;11.00;99.90
25482;DHT22;13395;50.752;4.268;2022-11-24T16:39:06;11.00;99.90
25482;DHT22;13395;50.752;4.268;2022-11-24T16:41:32;11.00;99.90
25482;DHT22;13395;50.752;4.268;2022-11-24T16:43:57;10.80;99.90
25482;DHT22;13395;50.752;4.268;2022-11-24T16:46:23;10.90;99.90
25482;DHT22;13395;50.752;4.268;2022-11-24T16:48:50;10.90;99.90
25482;DHT22;13395;50.752;4.268;2022-11-24T16:51:16;10.80;99.90
25482;DHT22;13395;50.752;4.268;2022-11-24T16:53:41;10.80;99.90
25482;DHT22;13395;50.752;4.268;2022-11-24T16:56:07;10.70;99.90
25482;DHT22;13395;50.752;4.268;2022-11-24T16:58:35;10.70;99.90
25482;DHT22;13395;50.752;4.268;2022-11-24T17:01:02;10.70;99.90
25482;DHT22;13395;50.752;4.268;2022-11-24T17:03:29;10.60;99.90
25482;DHT22;13395;50.752;4.268;2022-11-24T17:05:55;10.60;99.90
25482;DHT22;13395;50.752;4.268;2022-11-24T17:08:20;10.70;99.90
25482;DHT22;13395;50.752;4.268;2022-11-24T17:10:46;10.60;99.90
25482;DHT22;13395;50.752;4.268;2022-11-24T17:13:11;10.50;99.90
25482;DHT22;13395;50.752;4.268;2022-11-24T17:15:38;10.40;99.90
25482;DHT22;13395;50.752;4.268;2022-11-24T17:18:03;10.30;99.90
25482;DHT22;13395;50.752;4.268;2022-11-24T17:20:29;10.30;99.90
25482;DHT22;13395;50.752;4.268;2022-11-24T17:22:55;10.20;99.90
25482;DHT22;13395;50.752;4.268;2022-11-24T17:25:21;10.20;99.90
25482;DHT22;13395;50.752;4.268;2022-11-24T17:27:46;10.30;99.90
25482;DHT22;13395;50.752;4.268;2022-11-24T17:30:12;10.30;99.90
25482;DHT22;13395;50.752;4.268;2022-11-24T17:32:39;10.20;99.90
25482;DHT22;13395;50.752;4.268;2022-11-24T17:35:05;10.10;99.90
25482;DHT22;13395;50.752;4.268;2022-11-24T17:37:30;10.10;99.90